sensor_id;sensor_type;location;lat;lon;timestamp;temperature;humidity
14877;DHT22;22152;48.158;17.118;2023-04-10T00:00:22;6.70;90.40
14877;DHT22;22152;48.158;17.118;2023-04-10T00:03:16;6.70;90.40
14877;DHT22;22152;48.158;17.118;2023-04-10T00:05:48;6.70;90.50
14877;DHT22;22152;48.158;17.118;2023-04-10T00:08:41;6.70;90.50
14877;DHT22;22152;48.158;17.118;2023-04-10T00:11:13;6.70;90.60
14877;DHT22;22152;48.158;17.118;2023-04-10T00:14:06;6.70;90.50
14877;DHT22;22152;48.158;17.118;2023-04-10T00:16:38;6.70;90.50
14877;DHT22;22152;48.158;17.118;2023-04-10T00:19:31;6.80;90.50
14877;DHT22;22152;48.158;17.118;2023-04-10T00:22:04;6.80;90.40
14877;DHT22;22152;48.158;17.118;2023-04-10T00:24:57;6.80;90.40
14877;DHT22;22152;48.158;17.118;2023-04-10T00:27:29;6.80;90.50
14877;DHT22;22152;48.158;17.118;2023-04-10T00:30:22;6.80;90.40
14877;DHT22;22152;48.158;17.118;2023-04-10T00:32:54;6.80;90.50
14877;DHT22;22152;48.158;17.118;2023-04-10T00:35:47;6.90;90.60
14877;DHT22;22152;48.158;17.118;2023-04-10T00:38:19;6.90;90.80
14877;DHT22;22152;48.158;17.118;2023-04-10T00:41:12;6.90;90.80
14877;DHT22;22152;48.158;17.118;2023-04-10T00:43:45;7.00;90.90
14877;DHT22;22152;48.158;17.118;2023-04-10T00:46:39;7.00;90.80
14877;DHT22;22152;48.158;17.118;2023-04-10T00:49:12;7.10;90.90
14877;DHT22;22152;48.158;17.118;2023-04-10T00:52:06;7.10;90.90
14877;DHT22;22152;48.158;17.118;2023-04-10T00:54:46;7.10;90.90
14877;DHT22;22152;48.158;17.118;2023-04-10T00:57:33;7.10;90.90
14877;DHT22;22152;48.158;17.118;2023-04-10T01:00:13;7.20;91.00
14877;DHT22;22152;48.158;17.118;2023-04-10T01:03:00;7.20;90.90
14877;DHT22;22152;48.158;17.118;2023-04-10T01:06:13;7.20;90.80
14877;DHT22;22152;48.158;17.118;2023-04-10T01:13:15;7.10;91.40
14877;DHT22;22152;48.158;17.118;2023-04-10T01:16:33;7.00;91.00
14877;DHT22;22152;48.158;17.118;2023-04-10T01:19:17;7.00;91.10
14877;DHT22;22152;48.158;17.118;2023-04-10T01:22:16;7.00;91.00
14877;DHT22;22152;48.158;17.118;2023-04-10T01:31:33;6.90;91.10
14877;DHT22;22152;48.158;17.118;2023-04-10T01:34:39;6.90;91.10
14877;DHT22;22152;48.158;17.118;2023-04-10T01:37:26;6.90;91.10
14877;DHT22;22152;48.158;17.118;2023-04-10T01:40:24;6.90;91.20
14877;DHT22;22152;48.158;17.118;2023-04-10T01:42:59;6.90;91.30
14877;DHT22;22152;48.158;17.118;2023-04-10T01:46:01;6.90;91.30
14877;DHT22;22152;48.158;17.118;2023-04-10T01:48:34;6.90;91.60
14877;DHT22;22152;48.158;17.118;2023-04-10T01:51:29;6.90;91.20
14877;DHT22;22152;48.158;17.118;2023-04-10T01:54:08;6.90;91.20
14877;DHT22;22152;48.158;17.118;2023-04-10T01:57:02;6.80;91.20
14877;DHT22;22152;48.158;17.118;2023-04-10T01:59:43;6.90;91.30
14877;DHT22;22152;48.158;17.118;2023-04-10T02:02:36;6.90;91.20
14877;DHT22;22152;48.158;17.118;2023-04-10T02:05:09;6.90;91.40
14877;DHT22;22152;48.158;17.118;2023-04-10T02:08:12;6.90;91.40
14877;DHT22;22152;48.158;17.118;2023-04-10T02:14:19;6.90;91.50
14877;DHT22;22152;48.158;17.118;2023-04-10T02:16:54;7.00;91.50
14877;DHT22;22152;48.158;17.118;2023-04-10T02:19:49;7.00;91.50
14877;DHT22;22152;48.158;17.118;2023-04-10T02:22:24;7.00;91.50
14877;DHT22;22152;48.158;17.118;2023-04-10T02:25:17;7.00;91.40
14877;DHT22;22152;48.158;17.118;2023-04-10T02:27:50;7.00;91.40
14877;DHT22;22152;48.158;17.118;2023-04-10T02:30:44;6.90;91.40
14877;DHT22;22152;48.158;17.118;2023-04-10T02:33:16;6.80;91.40
14877;DHT22;22152;48.158;17.118;2023-04-10T02:36:09;6.80;91.30
14877;DHT22;22152;48.158;17.118;2023-04-10T02:38:41;6.80;91.40
14877;DHT22;22152;48.158;17.118;2023-04-10T02:41:36;6.70;91.40
14877;DHT22;22152;48.158;17.118;2023-04-10T02:44:12;6.70;91.30
14877;DHT22;22152;48.158;17.118;2023-04-10T02:47:05;6.70;91.30
14877;DHT22;22152;48.158;17.118;2023-04-10T02:49:41;6.60;91.50
14877;DHT22;22152;48.158;17.118;2023-04-10T02:52:34;6.60;91.60
14877;DHT22;22152;48.158;17.118;2023-04-10T02:55:07;6.60;91.70
14877;DHT22;22152;48.158;17.118;2023-04-10T02:58:00;6.60;91.60
14877;DHT22;22152;48.158;17.118;2023-04-10T03:00:32;6.60;91.60
14877;DHT22;22152;48.158;17.118;2023-04-10T03:03:29;6.60;91.60
14877;DHT22;22152;48.158;17.118;2023-04-10T03:06:01;6.60;91.70
14877;DHT22;22152;48.158;17.118;2023-04-10T03:08:56;6.50;91.70
14877;DHT22;22152;48.158;17.118;2023-04-10T03:11:28;6.50;92.10
14877;DHT22;22152;48.158;17.118;2023-04-10T03:14:21;6.50;91.80
14877;DHT22;22152;48.158;17.118;2023-04-10T03:16:54;6.50;91.80
14877;DHT22;22152;48.158;17.118;2023-04-10T03:19:48;6.50;91.80
14877;DHT22;22152;48.158;17.118;2023-04-10T03:22:21;6.50;92.00
14877;DHT22;22152;48.158;17.118;2023-04-10T03:25:16;6.50;91.90
14877;DHT22;22152;48.158;17.118;2023-04-10T03:27:48;6.40;92.00
14877;DHT22;22152;48.158;17.118;2023-04-10T03:30:41;6.40;92.10
14877;DHT22;22152;48.158;17.118;2023-04-10T03:33:13;6.50;92.30
14877;DHT22;22152;48.158;17.118;2023-04-10T03:36:06;6.50;92.30
14877;DHT22;22152;48.158;17.118;2023-04-10T03:38:39;6.50;92.40
14877;DHT22;22152;48.158;17.118;2023-04-10T03:41:32;6.50;92.40
14877;DHT22;22152;48.158;17.118;2023-04-10T03:44:05;6.50;92.50
14877;DHT22;22152;48.158;17.118;2023-04-10T03:46:58;6.60;92.60
14877;DHT22;22152;48.158;17.118;2023-04-10T03:49:30;6.60;92.70
14877;DHT22;22152;48.158;17.118;2023-04-10T03:52:23;6.70;92.90
14877;DHT22;22152;48.158;17.118;2023-04-10T03:54:56;6.80;93.00
14877;DHT22;22152;48.158;17.118;2023-04-10T03:57:50;7.00;93.00
14877;DHT22;22152;48.158;17.118;2023-04-10T04:00:31;7.10;93.00
14877;DHT22;22152;48.158;17.118;2023-04-10T04:03:46;7.20;92.90
14877;DHT22;22152;48.158;17.118;2023-04-10T04:06:58;7.40;92.80
14877;DHT22;22152;48.158;17.118;2023-04-10T04:10:11;7.50;92.90
14877;DHT22;22152;48.158;17.118;2023-04-10T04:13:07;7.50;92.70
14877;DHT22;22152;48.158;17.118;2023-04-10T04:16:05;7.60;92.80
14877;DHT22;22152;48.158;17.118;2023-04-10T04:18:58;7.70;92.70
14877;DHT22;22152;48.158;17.118;2023-04-10T04:21:57;7.80;92.70
14877;DHT22;22152;48.158;17.118;2023-04-10T04:25:07;7.90;92.30
14877;DHT22;22152;48.158;17.118;2023-04-10T04:28:12;8.00;92.20
14877;DHT22;22152;48.158;17.118;2023-04-10T04:31:00;8.00;92.20
14877;DHT22;22152;48.158;17.118;2023-04-10T04:34:12;8.00;91.90
14877;DHT22;22152;48.158;17.118;2023-04-10T04:37:03;8.00;92.20
14877;DHT22;22152;48.158;17.118;2023-04-10T04:40:22;8.00;92.20
14877;DHT22;22152;48.158;17.118;2023-04-10T04:43:07;8.20;91.90
14877;DHT22;22152;48.158;17.118;2023-04-10T04:46:19;8.20;91.70
14877;DHT22;22152;48.158;17.118;2023-04-10T04:49:10;8.20;91.30
14877;DHT22;22152;48.158;17.118;2023-04-10T04:52:21;8.20;91.40
14877;DHT22;22152;48.158;17.118;2023-04-10T04:55:04;8.30;91.60
14877;DHT22;22152;48.158;17.118;2023-04-10T04:58:10;8.30;91.50
14877;DHT22;22152;48.158;17.118;2023-04-10T05:01:09;8.40;91.40
14877;DHT22;22152;48.158;17.118;2023-04-10T05:04:03;8.50;91.60
14877;DHT22;22152;48.158;17.118;2023-04-10T05:07:11;8.60;91.20
14877;DHT22;22152;48.158;17.118;2023-04-10T05:10:14;8.70;91.10
14877;DHT22;22152;48.158;17.118;2023-04-10T05:13:18;8.70;90.90
14877;DHT22;22152;48.158;17.118;2023-04-10T05:16:35;8.90;90.90
14877;DHT22;22152;48.158;17.118;2023-04-10T05:19:22;8.90;90.50
14877;DHT22;22152;48.158;17.118;2023-04-10T05:22:32;9.00;90.40
14877;DHT22;22152;48.158;17.118;2023-04-10T05:25:23;9.00;90.20
14877;DHT22;22152;48.158;17.118;2023-04-10T05:28:23;9.20;90.20
14877;DHT22;22152;48.158;17.118;2023-04-10T05:31:12;9.30;90.10
14877;DHT22;22152;48.158;17.118;2023-04-10T05:34:19;9.30;89.20
14877;DHT22;22152;48.158;17.118;2023-04-10T05:37:07;9.30;89.20
14877;DHT22;22152;48.158;17.118;2023-04-10T05:40:10;9.30;87.80
14877;DHT22;22152;48.158;17.118;2023-04-10T05:43:06;9.20;87.90
14877;DHT22;22152;48.158;17.118;2023-04-10T05:46:24;9.20;88.50
14877;DHT22;22152;48.158;17.118;2023-04-10T05:49:20;9.30;88.20
14877;DHT22;22152;48.158;17.118;2023-04-10T05:52:26;9.30;87.70
14877;DHT22;22152;48.158;17.118;2023-04-10T05:55:37;9.30;87.70
14877;DHT22;22152;48.158;17.118;2023-04-10T05:58:48;9.40;87.70
14877;DHT22;22152;48.158;17.118;2023-04-10T06:01:44;9.50;87.10
14877;DHT22;22152;48.158;17.118;2023-04-10T06:04:30;9.60;86.90
14877;DHT22;22152;48.158;17.118;2023-04-10T06:07:16;9.70;86.40
14877;DHT22;22152;48.158;17.118;2023-04-10T06:10:09;9.80;86.50
14877;DHT22;22152;48.158;17.118;2023-04-10T06:12:42;9.90;85.90
14877;DHT22;22152;48.158;17.118;2023-04-10T06:15:36;10.00;84.00
14877;DHT22;22152;48.158;17.118;2023-04-10T06:18:08;10.00;83.40
14877;DHT22;22152;48.158;17.118;2023-04-10T06:21:01;10.00;83.60
14877;DHT22;22152;48.158;17.118;2023-04-10T06:23:33;10.00;83.00
14877;DHT22;22152;48.158;17.118;2023-04-10T06:26:27;10.00;82.60
14877;DHT22;22152;48.158;17.118;2023-04-10T06:29:01;10.10;82.80
14877;DHT22;22152;48.158;17.118;2023-04-10T06:31:55;10.20;82.60
14877;DHT22;22152;48.158;17.118;2023-04-10T06:34:30;10.30;82.40
14877;DHT22;22152;48.158;17.118;2023-04-10T06:37:27;10.50;81.40
14877;DHT22;22152;48.158;17.118;2023-04-10T06:40:12;10.50;80.60
14877;DHT22;22152;48.158;17.118;2023-04-10T06:43:06;10.60;80.60
14877;DHT22;22152;48.158;17.118;2023-04-10T06:45:38;10.80;80.00
14877;DHT22;22152;48.158;17.118;2023-04-10T06:48:32;10.90;78.90
14877;DHT22;22152;48.158;17.118;2023-04-10T06:51:04;11.00;78.60
14877;DHT22;22152;48.158;17.118;2023-04-10T06:53:58;11.10;78.30
14877;DHT22;22152;48.158;17.118;2023-04-10T06:56:30;11.30;77.30
14877;DHT22;22152;48.158;17.118;2023-04-10T06:59:23;11.50;77.40
14877;DHT22;22152;48.158;17.118;2023-04-10T07:02:02;11.60;76.40
14877;DHT22;22152;48.158;17.118;2023-04-10T07:04:49;11.60;75.10
14877;DHT22;22152;48.158;17.118;2023-04-10T07:07:35;11.60;74.70
14877;DHT22;22152;48.158;17.118;2023-04-10T07:10:28;11.50;74.20
14877;DHT22;22152;48.158;17.118;2023-04-10T07:13:01;11.50;75.60
14877;DHT22;22152;48.158;17.118;2023-04-10T07:15:54;11.60;75.40
14877;DHT22;22152;48.158;17.118;2023-04-10T07:18:26;11.90;74.60
14877;DHT22;22152;48.158;17.118;2023-04-10T07:21:19;12.00;73.50
14877;DHT22;22152;48.158;17.118;2023-04-10T07:23:51;12.30;71.50
14877;DHT22;22152;48.158;17.118;2023-04-10T07:26:45;12.40;70.60
14877;DHT22;22152;48.158;17.118;2023-04-10T07:29:17;12.50;69.20
14877;DHT22;22152;48.158;17.118;2023-04-10T07:32:11;12.50;69.30
14877;DHT22;22152;48.158;17.118;2023-04-10T07:34:43;12.70;68.90
14877;DHT22;22152;48.158;17.118;2023-04-10T07:37:36;12.70;68.10
14877;DHT22;22152;48.158;17.118;2023-04-10T07:40:10;12.80;67.80
14877;DHT22;22152;48.158;17.118;2023-04-10T07:43:04;12.80;67.10
14877;DHT22;22152;48.158;17.118;2023-04-10T07:45:36;12.80;67.00
14877;DHT22;22152;48.158;17.118;2023-04-10T07:48:29;12.80;66.10
14877;DHT22;22152;48.158;17.118;2023-04-10T07:51:01;13.00;65.60
14877;DHT22;22152;48.158;17.118;2023-04-10T07:53:55;13.10;65.80
14877;DHT22;22152;48.158;17.118;2023-04-10T07:56:27;13.20;65.70
14877;DHT22;22152;48.158;17.118;2023-04-10T07:59:20;13.40;64.30
14877;DHT22;22152;48.158;17.118;2023-04-10T08:01:52;13.40;63.40
14877;DHT22;22152;48.158;17.118;2023-04-10T08:04:45;13.40;63.70
14877;DHT22;22152;48.158;17.118;2023-04-10T08:07:19;13.40;62.80
14877;DHT22;22152;48.158;17.118;2023-04-10T08:10:13;13.40;63.50
14877;DHT22;22152;48.158;17.118;2023-04-10T08:12:45;13.40;63.30
14877;DHT22;22152;48.158;17.118;2023-04-10T08:15:38;13.40;62.40
14877;DHT22;22152;48.158;17.118;2023-04-10T08:18:10;13.60;63.50
14877;DHT22;22152;48.158;17.118;2023-04-10T08:21:03;13.90;62.80
14877;DHT22;22152;48.158;17.118;2023-04-10T08:23:35;14.20;61.80
14877;DHT22;22152;48.158;17.118;2023-04-10T08:26:28;14.30;61.40
14877;DHT22;22152;48.158;17.118;2023-04-10T08:29:00;14.40;60.60
14877;DHT22;22152;48.158;17.118;2023-04-10T08:31:53;14.40;60.40
14877;DHT22;22152;48.158;17.118;2023-04-10T08:34:26;14.60;60.70
14877;DHT22;22152;48.158;17.118;2023-04-10T08:37:20;14.50;59.70
14877;DHT22;22152;48.158;17.118;2023-04-10T08:39:52;14.50;59.80
14877;DHT22;22152;48.158;17.118;2023-04-10T08:42:45;14.60;59.50
14877;DHT22;22152;48.158;17.118;2023-04-10T08:45:17;14.60;59.90
14877;DHT22;22152;48.158;17.118;2023-04-10T08:48:10;14.60;59.40
14877;DHT22;22152;48.158;17.118;2023-04-10T08:50:45;14.80;59.20
14877;DHT22;22152;48.158;17.118;2023-04-10T08:53:40;14.90;58.60
14877;DHT22;22152;48.158;17.118;2023-04-10T08:56:17;14.60;58.10
14877;DHT22;22152;48.158;17.118;2023-04-10T08:59:10;14.20;59.50
14877;DHT22;22152;48.158;17.118;2023-04-10T09:01:42;14.00;59.80
14877;DHT22;22152;48.158;17.118;2023-04-10T09:04:36;14.10;60.30
14877;DHT22;22152;48.158;17.118;2023-04-10T09:07:22;14.20;60.40
14877;DHT22;22152;48.158;17.118;2023-04-10T09:10:15;14.30;60.20
14877;DHT22;22152;48.158;17.118;2023-04-10T09:12:47;14.30;60.10
14877;DHT22;22152;48.158;17.118;2023-04-10T09:15:57;14.00;59.90
14877;DHT22;22152;48.158;17.118;2023-04-10T09:21:35;14.00;61.50
14877;DHT22;22152;48.158;17.118;2023-04-10T09:24:07;14.20;60.30
14877;DHT22;22152;48.158;17.118;2023-04-10T09:27:00;14.30;59.60
14877;DHT22;22152;48.158;17.118;2023-04-10T09:29:41;14.50;59.50
14877;DHT22;22152;48.158;17.118;2023-04-10T09:32:41;14.90;59.30
14877;DHT22;22152;48.158;17.118;2023-04-10T09:35:14;15.00;58.30
14877;DHT22;22152;48.158;17.118;2023-04-10T09:38:19;15.10;58.10
14877;DHT22;22152;48.158;17.118;2023-04-10T09:41:05;15.00;58.30
14877;DHT22;22152;48.158;17.118;2023-04-10T09:44:09;14.80;58.40
14877;DHT22;22152;48.158;17.118;2023-04-10T09:46:43;14.60;59.20
14877;DHT22;22152;48.158;17.118;2023-04-10T09:49:50;14.50;59.40
14877;DHT22;22152;48.158;17.118;2023-04-10T09:52:29;14.40;59.50
14877;DHT22;22152;48.158;17.118;2023-04-10T09:55:23;14.30;60.30
14877;DHT22;22152;48.158;17.118;2023-04-10T09:57:56;14.30;60.50
14877;DHT22;22152;48.158;17.118;2023-04-10T10:00:50;14.10;60.40
14877;DHT22;22152;48.158;17.118;2023-04-10T10:03:23;14.10;61.70
14877;DHT22;22152;48.158;17.118;2023-04-10T10:06:17;14.10;61.00
14877;DHT22;22152;48.158;17.118;2023-04-10T10:09:03;14.00;61.40
14877;DHT22;22152;48.158;17.118;2023-04-10T10:11:50;14.00;61.90
14877;DHT22;22152;48.158;17.118;2023-04-10T10:14:31;14.30;62.20
14877;DHT22;22152;48.158;17.118;2023-04-10T10:17:21;14.40;61.20
14877;DHT22;22152;48.158;17.118;2023-04-10T10:20:06;14.60;61.40
14877;DHT22;22152;48.158;17.118;2023-04-10T10:22:54;14.80;60.70
14877;DHT22;22152;48.158;17.118;2023-04-10T10:25:35;15.10;59.80
14877;DHT22;22152;48.158;17.118;2023-04-10T10:28:23;15.60;59.60
14877;DHT22;22152;48.158;17.118;2023-04-10T10:31:03;16.10;58.20
14877;DHT22;22152;48.158;17.118;2023-04-10T10:33:53;16.10;57.20
14877;DHT22;22152;48.158;17.118;2023-04-10T10:36:34;15.70;57.40
14877;DHT22;22152;48.158;17.118;2023-04-10T10:39:37;15.60;57.70
14877;DHT22;22152;48.158;17.118;2023-04-10T10:46:14;15.30;57.60
14877;DHT22;22152;48.158;17.118;2023-04-10T10:48:57;15.20;57.20
14877;DHT22;22152;48.158;17.118;2023-04-10T10:51:45;15.10;57.00
14877;DHT22;22152;48.158;17.118;2023-04-10T10:54:30;15.00;57.70
14877;DHT22;22152;48.158;17.118;2023-04-10T10:57:45;15.10;57.30
14877;DHT22;22152;48.158;17.118;2023-04-10T11:00:26;15.00;57.30
14877;DHT22;22152;48.158;17.118;2023-04-10T11:03:33;14.90;58.10
14877;DHT22;22152;48.158;17.118;2023-04-10T11:06:21;14.90;57.40
14877;DHT22;22152;48.158;17.118;2023-04-10T11:09:44;14.90;57.10
14877;DHT22;22152;48.158;17.118;2023-04-10T11:12:26;15.00;57.50
14877;DHT22;22152;48.158;17.118;2023-04-10T11:15:22;15.00;57.40
14877;DHT22;22152;48.158;17.118;2023-04-10T11:17:55;15.10;57.90
14877;DHT22;22152;48.158;17.118;2023-04-10T11:21:07;15.10;56.90
14877;DHT22;22152;48.158;17.118;2023-04-10T11:26:42;15.10;56.60
14877;DHT22;22152;48.158;17.118;2023-04-10T11:32:07;15.20;56.40
14877;DHT22;22152;48.158;17.118;2023-04-10T11:34:44;15.30;56.20
14877;DHT22;22152;48.158;17.118;2023-04-10T11:37:37;15.40;56.20
14877;DHT22;22152;48.158;17.118;2023-04-10T11:40:09;15.60;56.00
14877;DHT22;22152;48.158;17.118;2023-04-10T11:43:13;15.80;56.00
14877;DHT22;22152;48.158;17.118;2023-04-10T11:45:46;15.90;55.10
14877;DHT22;22152;48.158;17.118;2023-04-10T11:48:39;16.10;55.00
14877;DHT22;22152;48.158;17.118;2023-04-10T11:51:12;16.30;55.10
14877;DHT22;22152;48.158;17.118;2023-04-10T11:54:14;16.40;54.40
14877;DHT22;22152;48.158;17.118;2023-04-10T11:57:03;16.60;54.10
14877;DHT22;22152;48.158;17.118;2023-04-10T11:59:57;16.60;53.60
14877;DHT22;22152;48.158;17.118;2023-04-10T12:02:31;16.70;53.60
14877;DHT22;22152;48.158;17.118;2023-04-10T12:05:24;16.90;53.80
14877;DHT22;22152;48.158;17.118;2023-04-10T12:07:57;17.00;53.40
14877;DHT22;22152;48.158;17.118;2023-04-10T12:10:50;17.00;53.40
14877;DHT22;22152;48.158;17.118;2023-04-10T12:13:28;16.90;52.90
14877;DHT22;22152;48.158;17.118;2023-04-10T12:16:24;16.70;52.80
14877;DHT22;22152;48.158;17.118;2023-04-10T12:18:58;16.50;53.30
14877;DHT22;22152;48.158;17.118;2023-04-10T12:21:51;16.40;53.10
14877;DHT22;22152;48.158;17.118;2023-04-10T12:24:43;16.30;53.20
14877;DHT22;22152;48.158;17.118;2023-04-10T12:27:36;16.10;53.50
14877;DHT22;22152;48.158;17.118;2023-04-10T12:30:09;16.10;53.50
14877;DHT22;22152;48.158;17.118;2023-04-10T12:33:01;16.10;53.70
14877;DHT22;22152;48.158;17.118;2023-04-10T12:35:38;16.10;54.20
14877;DHT22;22152;48.158;17.118;2023-04-10T12:38:39;16.20;54.00
14877;DHT22;22152;48.158;17.118;2023-04-10T12:41:20;16.20;53.60
14877;DHT22;22152;48.158;17.118;2023-04-10T12:44:22;16.20;53.00
14877;DHT22;22152;48.158;17.118;2023-04-10T12:46:59;16.20;53.10
14877;DHT22;22152;48.158;17.118;2023-04-10T12:50:07;16.30;53.10
14877;DHT22;22152;48.158;17.118;2023-04-10T12:52:44;16.30;52.80
14877;DHT22;22152;48.158;17.118;2023-04-10T12:55:38;16.30;52.50
14877;DHT22;22152;48.158;17.118;2023-04-10T12:58:18;16.40;52.30
14877;DHT22;22152;48.158;17.118;2023-04-10T13:01:12;16.50;52.10
14877;DHT22;22152;48.158;17.118;2023-04-10T13:03:46;16.60;52.10
14877;DHT22;22152;48.158;17.118;2023-04-10T13:06:50;16.80;51.80
14877;DHT22;22152;48.158;17.118;2023-04-10T13:10:16;17.00;51.60
14877;DHT22;22152;48.158;17.118;2023-04-10T13:13:17;17.20;51.60
14877;DHT22;22152;48.158;17.118;2023-04-10T13:17:08;17.20;51.10
14877;DHT22;22152;48.158;17.118;2023-04-10T13:19:53;17.20;51.30
14877;DHT22;22152;48.158;17.118;2023-04-10T13:22:39;17.20;51.20
14877;DHT22;22152;48.158;17.118;2023-04-10T13:25:18;17.50;50.70
14877;DHT22;22152;48.158;17.118;2023-04-10T13:28:06;17.60;50.20
14877;DHT22;22152;48.158;17.118;2023-04-10T13:30:53;17.90;50.60
14877;DHT22;22152;48.158;17.118;2023-04-10T13:33:39;18.10;49.50
14877;DHT22;22152;48.158;17.118;2023-04-10T13:36:19;18.40;48.90
14877;DHT22;22152;48.158;17.118;2023-04-10T13:39:05;18.60;48.50
14877;DHT22;22152;48.158;17.118;2023-04-10T13:41:44;18.80;48.10
14877;DHT22;22152;48.158;17.118;2023-04-10T13:44:30;19.00;47.90
14877;DHT22;22152;48.158;17.118;2023-04-10T13:47:09;19.10;47.10
14877;DHT22;22152;48.158;17.118;2023-04-10T13:49:55;19.10;47.40
14877;DHT22;22152;48.158;17.118;2023-04-10T13:52:34;19.30;46.80
14877;DHT22;22152;48.158;17.118;2023-04-10T13:55:20;19.40;46.60
14877;DHT22;22152;48.158;17.118;2023-04-10T13:57:59;19.50;46.30
14877;DHT22;22152;48.158;17.118;2023-04-10T14:00:45;19.30;46.00
14877;DHT22;22152;48.158;17.118;2023-04-10T14:03:24;19.40;46.20
14877;DHT22;22152;48.158;17.118;2023-04-10T14:06:10;19.20;46.20
14877;DHT22;22152;48.158;17.118;2023-04-10T14:08:57;19.10;46.30
14877;DHT22;22152;48.158;17.118;2023-04-10T14:11:49;19.00;46.50
14877;DHT22;22152;48.158;17.118;2023-04-10T14:14:29;18.70;46.80
14877;DHT22;22152;48.158;17.118;2023-04-10T14:17:14;18.50;47.10
14877;DHT22;22152;48.158;17.118;2023-04-10T14:19:53;18.30;47.20
14877;DHT22;22152;48.158;17.118;2023-04-10T14:22:39;18.10;47.40
14877;DHT22;22152;48.158;17.118;2023-04-10T14:25:18;18.10;47.80
14877;DHT22;22152;48.158;17.118;2023-04-10T14:28:04;18.10;47.80
14877;DHT22;22152;48.158;17.118;2023-04-10T14:30:48;18.10;47.80
14877;DHT22;22152;48.158;17.118;2023-04-10T14:33:34;18.20;47.70
14877;DHT22;22152;48.158;17.118;2023-04-10T14:36:13;18.10;47.40
14877;DHT22;22152;48.158;17.118;2023-04-10T14:38:59;17.90;47.50
14877;DHT22;22152;48.158;17.118;2023-04-10T14:41:38;17.80;48.00
14877;DHT22;22152;48.158;17.118;2023-04-10T14:44:24;17.70;48.00
14877;DHT22;22152;48.158;17.118;2023-04-10T14:47:03;17.60;48.20
14877;DHT22;22152;48.158;17.118;2023-04-10T14:49:49;17.80;48.30
14877;DHT22;22152;48.158;17.118;2023-04-10T14:52:28;18.20;48.00
14877;DHT22;22152;48.158;17.118;2023-04-10T14:55:14;18.40;47.50
14877;DHT22;22152;48.158;17.118;2023-04-10T14:57:53;18.40;47.00
14877;DHT22;22152;48.158;17.118;2023-04-10T15:00:39;18.30;46.90
14877;DHT22;22152;48.158;17.118;2023-04-10T15:03:18;18.30;47.00
14877;DHT22;22152;48.158;17.118;2023-04-10T15:06:05;18.20;47.30
14877;DHT22;22152;48.158;17.118;2023-04-10T15:08:51;18.10;47.10
14877;DHT22;22152;48.158;17.118;2023-04-10T15:11:44;18.10;47.30
14877;DHT22;22152;48.158;17.118;2023-04-10T15:14:17;18.20;47.00
14877;DHT22;22152;48.158;17.118;2023-04-10T15:17:10;18.20;46.90
14877;DHT22;22152;48.158;17.118;2023-04-10T15:19:42;18.10;46.80
14877;DHT22;22152;48.158;17.118;2023-04-10T15:22:35;17.90;47.00
14877;DHT22;22152;48.158;17.118;2023-04-10T15:25:08;17.60;47.40
14877;DHT22;22152;48.158;17.118;2023-04-10T15:28:01;17.40;47.80
14877;DHT22;22152;48.158;17.118;2023-04-10T15:30:33;17.10;48.30
14877;DHT22;22152;48.158;17.118;2023-04-10T15:33:26;17.00;48.60
14877;DHT22;22152;48.158;17.118;2023-04-10T15:35:58;16.90;48.80
14877;DHT22;22152;48.158;17.118;2023-04-10T15:38:51;16.80;49.00
14877;DHT22;22152;48.158;17.118;2023-04-10T15:41:24;16.60;49.90
14877;DHT22;22152;48.158;17.118;2023-04-10T15:44:17;16.50;49.50
14877;DHT22;22152;48.158;17.118;2023-04-10T15:46:49;16.50;49.60
14877;DHT22;22152;48.158;17.118;2023-04-10T15:49:42;16.30;49.70
14877;DHT22;22152;48.158;17.118;2023-04-10T15:52:14;16.20;49.80
14877;DHT22;22152;48.158;17.118;2023-04-10T15:55:07;16.10;50.00
14877;DHT22;22152;48.158;17.118;2023-04-10T15:57:39;16.10;50.30
14877;DHT22;22152;48.158;17.118;2023-04-10T16:00:32;16.00;50.40
14877;DHT22;22152;48.158;17.118;2023-04-10T16:03:05;16.00;50.60
14877;DHT22;22152;48.158;17.118;2023-04-10T16:05:57;15.90;50.80
14877;DHT22;22152;48.158;17.118;2023-04-10T16:08:29;15.80;51.00
14877;DHT22;22152;48.158;17.118;2023-04-10T16:11:22;15.70;51.20
14877;DHT22;22152;48.158;17.118;2023-04-10T16:13:54;15.60;51.20
14877;DHT22;22152;48.158;17.118;2023-04-10T16:16:47;15.50;51.90
14877;DHT22;22152;48.158;17.118;2023-04-10T16:19:30;15.50;52.00
14877;DHT22;22152;48.158;17.118;2023-04-10T16:22:16;15.40;51.50
14877;DHT22;22152;48.158;17.118;2023-04-10T16:24:56;15.40;51.70
14877;DHT22;22152;48.158;17.118;2023-04-10T16:27:42;15.30;51.70
14877;DHT22;22152;48.158;17.118;2023-04-10T16:30:22;15.20;52.40
14877;DHT22;22152;48.158;17.118;2023-04-10T16:33:08;15.20;51.80
14877;DHT22;22152;48.158;17.118;2023-04-10T16:35:47;15.10;51.90
14877;DHT22;22152;48.158;17.118;2023-04-10T16:38:35;15.00;51.80
14877;DHT22;22152;48.158;17.118;2023-04-10T16:41:14;15.00;52.10
14877;DHT22;22152;48.158;17.118;2023-04-10T16:44:00;14.90;52.10
14877;DHT22;22152;48.158;17.118;2023-04-10T16:46:39;14.80;52.60
14877;DHT22;22152;48.158;17.118;2023-04-10T16:49:25;14.70;52.70
14877;DHT22;22152;48.158;17.118;2023-04-10T16:52:04;14.70;53.00
14877;DHT22;22152;48.158;17.118;2023-04-10T16:54:50;14.60;53.30
14877;DHT22;22152;48.158;17.118;2023-04-10T16:57:29;14.60;53.50
14877;DHT22;22152;48.158;17.118;2023-04-10T17:00:15;14.50;53.60
14877;DHT22;22152;48.158;17.118;2023-04-10T17:02:57;14.40;53.90
14877;DHT22;22152;48.158;17.118;2023-04-10T17:05:43;14.30;54.50
14877;DHT22;22152;48.158;17.118;2023-04-10T17:08:29;14.20;55.00
14877;DHT22;22152;48.158;17.118;2023-04-10T17:11:22;14.10;55.20
14877;DHT22;22152;48.158;17.118;2023-04-10T17:13:54;14.00;56.10
14877;DHT22;22152;48.158;17.118;2023-04-10T17:16:47;13.90;56.10
14877;DHT22;22152;48.158;17.118;2023-04-10T17:19:19;13.70;56.90
14877;DHT22;22152;48.158;17.118;2023-04-10T17:22:12;13.60;57.20
14877;DHT22;22152;48.158;17.118;2023-04-10T17:24:46;13.50;58.00
14877;DHT22;22152;48.158;17.118;2023-04-10T17:27:39;13.30;58.10
14877;DHT22;22152;48.158;17.118;2023-04-10T17:30:12;13.20;59.00
14877;DHT22;22152;48.158;17.118;2023-04-10T17:33:05;13.10;59.40
14877;DHT22;22152;48.158;17.118;2023-04-10T17:35:37;12.90;59.80
14877;DHT22;22152;48.158;17.118;2023-04-10T17:38:30;12.80;60.00
14877;DHT22;22152;48.158;17.118;2023-04-10T17:41:04;12.60;60.90
14877;DHT22;22152;48.158;17.118;2023-04-10T17:43:57;12.50;61.40
14877;DHT22;22152;48.158;17.118;2023-04-10T17:46:29;12.40;62.10
14877;DHT22;22152;48.158;17.118;2023-04-10T17:49:22;12.30;62.50